Ride Results

NCER @ Lancefield (18-07-2015)
Ride distance: 80.0 km

Outcomes - NCER @ Lancefield (18-07-2015)
Division No. of Entries Retired / DNE Completed Withdrawn Ineligible V/O Percentage Completed
HW 3 - 2 - - 1 66.67%
MW 15 - 14 - - 1 93.33%
LW 9 - 9 - - - 100.00%
JN 7 - 7 - - - 100.00%
Totals 34 - 32 - - 2 94.12%
Results - NCER @ Lancefield (18-07-2015)
No. Rider Horse Place Time Leg Speeds Total
Km/Hr
H/R bpm
Heavyweight
66 Digger Leehane Tarara Malone 1 (BC) 6:32:00 12.6, 11.8 12.24 30, 39, 44 (Avg:41)
197 Dennis Moore Boss 2 7:05:00 12.6, 10.2 11.29 33, 43, 45 (Avg:44)
761 Stuart Lymbery Aloha Typic Lame L2 0:00:00 12.4, 12.3 - 34, 46, 48 (Avg:47)
Middleweight
769 Alamdar Dastani Suncrest Sadaqa's Pride 1 4:39:00 17.1, 17.2 17.20 30, 49, 46 (Avg:47)
796 Ben Hudson Oso Edith 2 4:41:00 16.4, 17.7 17.08 42, 41, 48 (Avg:44)
244 Marty Bryson Castlebar Shatan 3 5:13:00 16.9, 14.0 15.34 28, 40, 41 (Avg:40)
23 Brittnee Smith Timbertop Golden Fantasy 4 5:16:00 15.2, 15.0 15.19 27, 42, 47 (Avg:44)
797 Jenny Berg Oso Ellazandra 5 5:45:00 13.7, 14.1 13.91 34, 42, 45 (Avg:43)
772 Wendy Riha Bullio Gebreselassie 6 6:25:00 12.4, 12.4 12.47 36, 41, 45 (Avg:43)
774 Frith Szigethy-Gyula Littlebanks Magic Wings 7 6:28:00 12.6, 12.1 12.37 33, 52, 58 (Avg:55)
798 Kate Gibson AM Reigning Bianca 8 6:30:00 12.4, 12.1 12.31 56, 46, 57 (Avg:51)
273 Georgie Hart Dejarn Khan 9 6:57:00 11.2, 11.7 11.51 30, 43, 39 (Avg:41)
234 Jacki Liuzzi Khayem Requisite 9 6:57:00 13.1, 10.2 11.51 36, 44, 46 (Avg:45)
276 Angelika Anderson Karameawoods Amber 11 7:05:00 12.6, 10.2 11.29 31, 48, 46 (Avg:47)
257 Tanya Beacham Creswick Magdaleenah 12 7:37:00 10.6, 10.3 10.50 35, 43, 47 (Avg:45)
293 Daniel Noble Littlebanks Muscles 13 7:51:00 9.9, 10.3 10.19 41, 43, 45 (Avg:44)
775 Angie Turner Imparja Tarkari 14 8:07:00 9.4, 10.3 9.86 39, 43, 45 (Avg:44)
773 Joanne Masterson Musical Gully Bosanova Lame L2 0:00:00 11.2, 11.7 - 34, 38, 45 (Avg:41)
Lightweight
91 Kim Noble Menora Moon Dance 1 4:42:00 17.1, 16.9 17.02 36, 48, 51 (Avg:49)
771 Allix Jones Oso Lee 2 (BC) 4:45:00 16.4, 17.2 16.84 34, 48, 41 (Avg:44)
799 Sorsha Stuart-Rokvic Cap Braveheart 2 4:45:00 16.4, 17.2 16.84 30, 49, 50 (Avg:49)
770 Dianne Luker Kintamani Silver Diva 4 6:19:00 13.1, 12.1 12.66 31, 40, 40 (Avg:40)
278 Gina Thompson Dualling 5 6:57:00 11.2, 11.7 11.51 35, 40, 43 (Avg:41)
61 Lois Sharam Musical Gully Carousel 6 7:37:00 10.6, 10.3 10.50 41, 46, 51 (Avg:48)
114 Helen Spencer Imoan Party Girl 6 7:37:00 10.6, 10.3 10.50 36, 39, 45 (Avg:42)
219 Caroline Noble Box Hill Meziah 8 8:07:00 9.4, 10.3 9.86 34, 42, 43 (Avg:42)
3 Caley Rees Zemperial 8 8:07:00 9.4, 10.3 9.86 28, 45, 46 (Avg:45)
Junior
292 Alison Noble Roswick Dilhurst 1 (BC) 4:42:00 17.1, 16.9 17.02 36, 44, 45 (Avg:44)
280 Thomas Reay Monkhani Lodge Nobles Locket 1 4:42:00 17.1, 16.9 17.02 46, 44, 43 (Avg:43)
760 Stacey Clarke Al Marah Gypsy Red 3 5:45:00 13.7, 14.1 13.91 41, 48, 50 (Avg:49)
262 Bonnie Player Windradyne Magnum 4 6:28:00 12.6, 12.1 12.37 33, 50, 51 (Avg:50)
225 Harrison Berg Aloha Mamma Mia 5 6:30:00 12.4, 12.1 12.31 42, 44, 48 (Avg:46)
767 Jessica Banaszczyk Mosaic 6 7:51:00 9.9, 10.3 10.19 35, 41, 42 (Avg:41)
766 Olivia De Gruchy Cedar Ridge Rhythmic Ruler 6 7:51:00 9.9, 10.3 10.19 46, 38, 46 (Avg:42)